sensor_id;sensor_type;location;lat;lon;timestamp;P1;durP1;ratioP1;P2;durP2;ratioP2
59169;SDS011;52474;52.236;5.114;2024-03-25T00:01:20;23.67;;;3.80;;
59169;SDS011;52474;52.236;5.114;2024-03-25T00:03:45;13.88;;;3.22;;
59169;SDS011;52474;52.236;5.114;2024-03-25T00:06:11;12.40;;;2.60;;
59169;SDS011;52474;52.236;5.114;2024-03-25T00:08:36;21.65;;;3.05;;
59169;SDS011;52474;52.236;5.114;2024-03-25T00:11:02;21.67;;;3.08;;
59169;SDS011;52474;52.236;5.114;2024-03-25T00:13:28;16.10;;;2.75;;
59169;SDS011;52474;52.236;5.114;2024-03-25T00:15:53;18.83;;;3.15;;
59169;SDS011;52474;52.236;5.114;2024-03-25T00:18:19;15.95;;;2.92;;
59169;SDS011;52474;52.236;5.114;2024-03-25T00:20:45;19.25;;;3.13;;
59169;SDS011;52474;52.236;5.114;2024-03-25T00:23:10;17.55;;;3.42;;
59169;SDS011;52474;52.236;5.114;2024-03-25T00:25:37;24.10;;;3.67;;
59169;SDS011;52474;52.236;5.114;2024-03-25T00:28:02;17.02;;;2.63;;
59169;SDS011;52474;52.236;5.114;2024-03-25T00:30:29;26.33;;;4.10;;
59169;SDS011;52474;52.236;5.114;2024-03-25T00:32:55;18.02;;;2.70;;
59169;SDS011;52474;52.236;5.114;2024-03-25T00:35:20;15.43;;;2.90;;
59169;SDS011;52474;52.236;5.114;2024-03-25T00:37:46;15.90;;;2.92;;
59169;SDS011;52474;52.236;5.114;2024-03-25T00:40:12;21.40;;;2.90;;
59169;SDS011;52474;52.236;5.114;2024-03-25T00:42:38;16.77;;;2.65;;
59169;SDS011;52474;52.236;5.114;2024-03-25T00:45:03;17.08;;;3.38;;
59169;SDS011;52474;52.236;5.114;2024-03-25T00:47:31;17.08;;;2.47;;
59169;SDS011;52474;52.236;5.114;2024-03-25T00:49:57;14.77;;;2.55;;
59169;SDS011;52474;52.236;5.114;2024-03-25T00:52:22;28.30;;;3.53;;
59169;SDS011;52474;52.236;5.114;2024-03-25T00:54:48;19.48;;;2.78;;
59169;SDS011;52474;52.236;5.114;2024-03-25T00:57:14;24.55;;;3.05;;
59169;SDS011;52474;52.236;5.114;2024-03-25T00:59:39;21.67;;;2.80;;
59169;SDS011;52474;52.236;5.114;2024-03-25T01:02:05;22.13;;;3.65;;
59169;SDS011;52474;52.236;5.114;2024-03-25T01:04:31;23.63;;;3.05;;
59169;SDS011;52474;52.236;5.114;2024-03-25T01:06:56;12.20;;;2.83;;
59169;SDS011;52474;52.236;5.114;2024-03-25T01:09:22;16.77;;;3.42;;
59169;SDS011;52474;52.236;5.114;2024-03-25T01:11:48;18.75;;;2.95;;
59169;SDS011;52474;52.236;5.114;2024-03-25T01:14:13;14.15;;;3.28;;
59169;SDS011;52474;52.236;5.114;2024-03-25T01:16:39;23.88;;;3.08;;
59169;SDS011;52474;52.236;5.114;2024-03-25T01:19:04;12.27;;;2.20;;
59169;SDS011;52474;52.236;5.114;2024-03-25T01:21:30;25.15;;;3.40;;
59169;SDS011;52474;52.236;5.114;2024-03-25T01:23:55;20.65;;;3.55;;
59169;SDS011;52474;52.236;5.114;2024-03-25T01:26:21;21.67;;;3.00;;
59169;SDS011;52474;52.236;5.114;2024-03-25T01:28:47;30.23;;;3.53;;
59169;SDS011;52474;52.236;5.114;2024-03-25T01:31:13;21.52;;;3.78;;
59169;SDS011;52474;52.236;5.114;2024-03-25T01:33:39;23.27;;;3.22;;
59169;SDS011;52474;52.236;5.114;2024-03-25T01:36:05;17.50;;;3.53;;
59169;SDS011;52474;52.236;5.114;2024-03-25T01:38:31;19.85;;;3.28;;
59169;SDS011;52474;52.236;5.114;2024-03-25T01:41:09;26.70;;;3.30;;
59169;SDS011;52474;52.236;5.114;2024-03-25T01:43:40;13.73;;;2.63;;
59169;SDS011;52474;52.236;5.114;2024-03-25T01:46:06;22.30;;;2.70;;
59169;SDS011;52474;52.236;5.114;2024-03-25T01:48:32;16.27;;;2.75;;
59169;SDS011;52474;52.236;5.114;2024-03-25T01:50:58;17.27;;;3.53;;
59169;SDS011;52474;52.236;5.114;2024-03-25T01:53:27;16.95;;;3.17;;
59169;SDS011;52474;52.236;5.114;2024-03-25T01:55:54;21.75;;;3.40;;
59169;SDS011;52474;52.236;5.114;2024-03-25T01:58:22;12.45;;;2.88;;
59169;SDS011;52474;52.236;5.114;2024-03-25T02:00:49;20.40;;;3.85;;
59169;SDS011;52474;52.236;5.114;2024-03-25T02:03:16;17.00;;;2.95;;
59169;SDS011;52474;52.236;5.114;2024-03-25T02:05:42;20.08;;;2.95;;
59169;SDS011;52474;52.236;5.114;2024-03-25T02:08:09;19.38;;;3.33;;
59169;SDS011;52474;52.236;5.114;2024-03-25T02:10:35;21.80;;;3.67;;
59169;SDS011;52474;52.236;5.114;2024-03-25T02:13:03;19.35;;;3.35;;
59169;SDS011;52474;52.236;5.114;2024-03-25T02:15:28;18.80;;;4.93;;
59169;SDS011;52474;52.236;5.114;2024-03-25T02:17:54;27.15;;;3.50;;
59169;SDS011;52474;52.236;5.114;2024-03-25T02:20:20;20.33;;;3.70;;
59169;SDS011;52474;52.236;5.114;2024-03-25T02:22:46;16.88;;;3.17;;
59169;SDS011;52474;52.236;5.114;2024-03-25T02:25:12;19.77;;;2.63;;
59169;SDS011;52474;52.236;5.114;2024-03-25T02:27:39;19.25;;;2.90;;
59169;SDS011;52474;52.236;5.114;2024-03-25T02:32:33;24.08;;;3.70;;
59169;SDS011;52474;52.236;5.114;2024-03-25T02:34:59;19.30;;;3.85;;
59169;SDS011;52474;52.236;5.114;2024-03-25T02:37:28;14.77;;;3.83;;
59169;SDS011;52474;52.236;5.114;2024-03-25T02:39:55;25.83;;;2.95;;
59169;SDS011;52474;52.236;5.114;2024-03-25T02:42:27;17.48;;;2.53;;
59169;SDS011;52474;52.236;5.114;2024-03-25T02:44:56;16.52;;;3.20;;
59169;SDS011;52474;52.236;5.114;2024-03-25T02:47:22;24.45;;;3.42;;
59169;SDS011;52474;52.236;5.114;2024-03-25T02:49:48;25.52;;;3.67;;
59169;SDS011;52474;52.236;5.114;2024-03-25T02:52:13;17.50;;;3.28;;
59169;SDS011;52474;52.236;5.114;2024-03-25T02:54:39;17.88;;;2.70;;
59169;SDS011;52474;52.236;5.114;2024-03-25T02:57:05;23.52;;;3.00;;
59169;SDS011;52474;52.236;5.114;2024-03-25T02:59:31;21.27;;;3.00;;
59169;SDS011;52474;52.236;5.114;2024-03-25T03:01:56;26.70;;;4.30;;
59169;SDS011;52474;52.236;5.114;2024-03-25T03:04:22;14.57;;;2.97;;
59169;SDS011;52474;52.236;5.114;2024-03-25T03:06:48;16.17;;;3.03;;
59169;SDS011;52474;52.236;5.114;2024-03-25T03:09:14;21.90;;;3.35;;
59169;SDS011;52474;52.236;5.114;2024-03-25T03:11:40;21.23;;;3.42;;
59169;SDS011;52474;52.236;5.114;2024-03-25T03:14:06;27.50;;;3.17;;
59169;SDS011;52474;52.236;5.114;2024-03-25T03:16:32;19.08;;;3.13;;
59169;SDS011;52474;52.236;5.114;2024-03-25T03:18:57;25.20;;;3.60;;
59169;SDS011;52474;52.236;5.114;2024-03-25T03:21:23;20.38;;;3.38;;
59169;SDS011;52474;52.236;5.114;2024-03-25T03:23:48;22.42;;;3.47;;
59169;SDS011;52474;52.236;5.114;2024-03-25T03:26:14;12.75;;;2.13;;
59169;SDS011;52474;52.236;5.114;2024-03-25T03:28:40;24.52;;;4.57;;
59169;SDS011;52474;52.236;5.114;2024-03-25T03:31:06;10.68;;;1.88;;
59169;SDS011;52474;52.236;5.114;2024-03-25T03:33:32;17.83;;;3.38;;
59169;SDS011;52474;52.236;5.114;2024-03-25T03:35:57;22.88;;;2.85;;
59169;SDS011;52474;52.236;5.114;2024-03-25T03:38:23;13.43;;;2.67;;
59169;SDS011;52474;52.236;5.114;2024-03-25T03:41:10;21.80;;;2.63;;
59169;SDS011;52474;52.236;5.114;2024-03-25T03:43:35;12.98;;;2.70;;
59169;SDS011;52474;52.236;5.114;2024-03-25T03:46:02;12.98;;;2.67;;
59169;SDS011;52474;52.236;5.114;2024-03-25T03:48:28;14.25;;;2.33;;
59169;SDS011;52474;52.236;5.114;2024-03-25T03:50:54;16.75;;;2.70;;
59169;SDS011;52474;52.236;5.114;2024-03-25T03:53:20;17.30;;;2.60;;
59169;SDS011;52474;52.236;5.114;2024-03-25T03:58:21;22.00;;;2.60;;
59169;SDS011;52474;52.236;5.114;2024-03-25T04:00:48;16.75;;;2.38;;
59169;SDS011;52474;52.236;5.114;2024-03-25T04:03:14;14.48;;;2.30;;
59169;SDS011;52474;52.236;5.114;2024-03-25T04:05:39;17.48;;;2.42;;
59169;SDS011;52474;52.236;5.114;2024-03-25T04:08:05;22.00;;;3.08;;
59169;SDS011;52474;52.236;5.114;2024-03-25T04:10:31;20.63;;;2.58;;
59169;SDS011;52474;52.236;5.114;2024-03-25T04:12:56;18.60;;;2.78;;
59169;SDS011;52474;52.236;5.114;2024-03-25T04:15:22;15.35;;;2.47;;
59169;SDS011;52474;52.236;5.114;2024-03-25T04:17:48;17.10;;;2.58;;
59169;SDS011;52474;52.236;5.114;2024-03-25T04:20:16;18.17;;;2.78;;
59169;SDS011;52474;52.236;5.114;2024-03-25T04:22:42;17.25;;;3.03;;
59169;SDS011;52474;52.236;5.114;2024-03-25T04:25:09;15.88;;;2.65;;
59169;SDS011;52474;52.236;5.114;2024-03-25T04:27:42;25.90;;;3.50;;
59169;SDS011;52474;52.236;5.114;2024-03-25T04:30:08;12.70;;;2.88;;
59169;SDS011;52474;52.236;5.114;2024-03-25T04:32:35;14.25;;;2.40;;
59169;SDS011;52474;52.236;5.114;2024-03-25T04:35:01;12.50;;;2.40;;
59169;SDS011;52474;52.236;5.114;2024-03-25T04:37:28;13.38;;;2.55;;
59169;SDS011;52474;52.236;5.114;2024-03-25T04:39:55;24.70;;;3.40;;
59169;SDS011;52474;52.236;5.114;2024-03-25T04:42:21;11.35;;;2.45;;
59169;SDS011;52474;52.236;5.114;2024-03-25T04:44:47;16.90;;;2.58;;
59169;SDS011;52474;52.236;5.114;2024-03-25T04:47:13;14.10;;;2.83;;
59169;SDS011;52474;52.236;5.114;2024-03-25T04:49:42;13.20;;;2.70;;
59169;SDS011;52474;52.236;5.114;2024-03-25T04:52:08;18.17;;;2.85;;
59169;SDS011;52474;52.236;5.114;2024-03-25T04:54:34;15.00;;;2.60;;
59169;SDS011;52474;52.236;5.114;2024-03-25T04:57:00;18.08;;;2.55;;
59169;SDS011;52474;52.236;5.114;2024-03-25T04:59:27;12.98;;;2.20;;
59169;SDS011;52474;52.236;5.114;2024-03-25T05:01:53;9.70;;;2.13;;
59169;SDS011;52474;52.236;5.114;2024-03-25T05:04:19;11.80;;;2.50;;
59169;SDS011;52474;52.236;5.114;2024-03-25T05:06:45;11.27;;;2.55;;
59169;SDS011;52474;52.236;5.114;2024-03-25T05:09:11;18.73;;;2.47;;
59169;SDS011;52474;52.236;5.114;2024-03-25T05:11:37;10.35;;;2.25;;
59169;SDS011;52474;52.236;5.114;2024-03-25T05:14:02;14.90;;;2.17;;
59169;SDS011;52474;52.236;5.114;2024-03-25T05:16:28;13.07;;;2.88;;
59169;SDS011;52474;52.236;5.114;2024-03-25T05:18:53;12.95;;;3.08;;
59169;SDS011;52474;52.236;5.114;2024-03-25T05:21:19;12.38;;;2.90;;
59169;SDS011;52474;52.236;5.114;2024-03-25T05:23:45;15.50;;;3.50;;
59169;SDS011;52474;52.236;5.114;2024-03-25T05:26:10;17.00;;;4.00;;
59169;SDS011;52474;52.236;5.114;2024-03-25T05:28:36;12.40;;;3.08;;
59169;SDS011;52474;52.236;5.114;2024-03-25T05:31:10;14.00;;;3.63;;
59169;SDS011;52474;52.236;5.114;2024-03-25T05:33:36;18.50;;;3.60;;
59169;SDS011;52474;52.236;5.114;2024-03-25T05:36:03;15.90;;;3.25;;
59169;SDS011;52474;52.236;5.114;2024-03-25T05:38:29;13.75;;;3.47;;
59169;SDS011;52474;52.236;5.114;2024-03-25T05:40:55;22.08;;;4.22;;
59169;SDS011;52474;52.236;5.114;2024-03-25T05:43:22;10.52;;;3.38;;
59169;SDS011;52474;52.236;5.114;2024-03-25T05:45:51;12.52;;;4.22;;
59169;SDS011;52474;52.236;5.114;2024-03-25T05:48:18;20.77;;;3.65;;
59169;SDS011;52474;52.236;5.114;2024-03-25T05:50:44;11.82;;;4.13;;
59169;SDS011;52474;52.236;5.114;2024-03-25T05:53:10;22.10;;;4.85;;
59169;SDS011;52474;52.236;5.114;2024-03-25T05:55:36;25.25;;;5.70;;
59169;SDS011;52474;52.236;5.114;2024-03-25T05:58:01;14.90;;;4.95;;
59169;SDS011;52474;52.236;5.114;2024-03-25T06:00:28;21.98;;;4.65;;
59169;SDS011;52474;52.236;5.114;2024-03-25T06:02:55;23.55;;;5.68;;
59169;SDS011;52474;52.236;5.114;2024-03-25T06:05:22;19.73;;;4.90;;
59169;SDS011;52474;52.236;5.114;2024-03-25T06:07:47;21.67;;;5.97;;
59169;SDS011;52474;52.236;5.114;2024-03-25T06:10:13;21.77;;;7.10;;
59169;SDS011;52474;52.236;5.114;2024-03-25T06:12:39;38.92;;;10.50;;
59169;SDS011;52474;52.236;5.114;2024-03-25T06:15:05;35.72;;;8.73;;
59169;SDS011;52474;52.236;5.114;2024-03-25T06:17:32;32.58;;;9.82;;
59169;SDS011;52474;52.236;5.114;2024-03-25T06:19:58;20.25;;;6.50;;
59169;SDS011;52474;52.236;5.114;2024-03-25T06:22:23;37.30;;;10.27;;
59169;SDS011;52474;52.236;5.114;2024-03-25T06:24:49;35.75;;;10.68;;
59169;SDS011;52474;52.236;5.114;2024-03-25T06:27:15;18.60;;;5.50;;
59169;SDS011;52474;52.236;5.114;2024-03-25T06:29:41;21.05;;;6.28;;
59169;SDS011;52474;52.236;5.114;2024-03-25T06:32:09;25.00;;;6.10;;
59169;SDS011;52474;52.236;5.114;2024-03-25T06:34:53;25.10;;;6.28;;
59169;SDS011;52474;52.236;5.114;2024-03-25T06:37:19;19.67;;;5.75;;
59169;SDS011;52474;52.236;5.114;2024-03-25T06:39:44;19.52;;;5.30;;
59169;SDS011;52474;52.236;5.114;2024-03-25T06:42:10;22.75;;;5.55;;
59169;SDS011;52474;52.236;5.114;2024-03-25T06:44:35;20.45;;;5.18;;
59169;SDS011;52474;52.236;5.114;2024-03-25T06:47:01;18.75;;;5.90;;
59169;SDS011;52474;52.236;5.114;2024-03-25T06:49:30;25.10;;;6.22;;
59169;SDS011;52474;52.236;5.114;2024-03-25T06:51:55;29.60;;;7.03;;
59169;SDS011;52474;52.236;5.114;2024-03-25T06:54:21;25.42;;;7.55;;
59169;SDS011;52474;52.236;5.114;2024-03-25T06:56:46;24.23;;;7.88;;
59169;SDS011;52474;52.236;5.114;2024-03-25T06:59:12;25.98;;;7.65;;
59169;SDS011;52474;52.236;5.114;2024-03-25T07:01:38;27.65;;;7.97;;
59169;SDS011;52474;52.236;5.114;2024-03-25T07:04:03;26.90;;;8.32;;
59169;SDS011;52474;52.236;5.114;2024-03-25T07:06:29;27.23;;;8.63;;
59169;SDS011;52474;52.236;5.114;2024-03-25T07:08:55;29.40;;;8.70;;
59169;SDS011;52474;52.236;5.114;2024-03-25T07:11:21;39.92;;;9.98;;
59169;SDS011;52474;52.236;5.114;2024-03-25T07:13:47;30.98;;;9.23;;
59169;SDS011;52474;52.236;5.114;2024-03-25T07:16:12;29.05;;;9.30;;
59169;SDS011;52474;52.236;5.114;2024-03-25T07:18:38;31.70;;;9.38;;
59169;SDS011;52474;52.236;5.114;2024-03-25T07:21:03;30.98;;;10.35;;
59169;SDS011;52474;52.236;5.114;2024-03-25T07:23:29;31.08;;;9.80;;
59169;SDS011;52474;52.236;5.114;2024-03-25T07:25:55;37.05;;;10.00;;
59169;SDS011;52474;52.236;5.114;2024-03-25T07:28:20;27.52;;;10.20;;
59169;SDS011;52474;52.236;5.114;2024-03-25T07:30:46;30.48;;;10.32;;
59169;SDS011;52474;52.236;5.114;2024-03-25T07:33:12;30.88;;;9.15;;
59169;SDS011;52474;52.236;5.114;2024-03-25T07:35:38;26.85;;;10.20;;
59169;SDS011;52474;52.236;5.114;2024-03-25T07:38:03;36.33;;;10.50;;
59169;SDS011;52474;52.236;5.114;2024-03-25T07:40:29;25.65;;;10.80;;
59169;SDS011;52474;52.236;5.114;2024-03-25T07:42:55;26.77;;;9.57;;
59169;SDS011;52474;52.236;5.114;2024-03-25T07:45:21;31.05;;;9.27;;
59169;SDS011;52474;52.236;5.114;2024-03-25T07:47:47;22.48;;;7.35;;
59169;SDS011;52474;52.236;5.114;2024-03-25T07:50:12;23.45;;;8.25;;
59169;SDS011;52474;52.236;5.114;2024-03-25T07:52:38;27.85;;;8.63;;
59169;SDS011;52474;52.236;5.114;2024-03-25T07:55:08;31.08;;;8.63;;
59169;SDS011;52474;52.236;5.114;2024-03-25T07:57:33;30.02;;;8.95;;
59169;SDS011;52474;52.236;5.114;2024-03-25T07:59:59;24.00;;;7.43;;
59169;SDS011;52474;52.236;5.114;2024-03-25T08:02:25;17.52;;;5.88;;
59169;SDS011;52474;52.236;5.114;2024-03-25T08:04:50;23.98;;;6.00;;
59169;SDS011;52474;52.236;5.114;2024-03-25T08:07:16;22.77;;;6.82;;
59169;SDS011;52474;52.236;5.114;2024-03-25T08:09:42;22.00;;;6.05;;
59169;SDS011;52474;52.236;5.114;2024-03-25T08:12:08;19.85;;;6.13;;
59169;SDS011;52474;52.236;5.114;2024-03-25T08:14:34;24.05;;;6.47;;
59169;SDS011;52474;52.236;5.114;2024-03-25T08:17:00;26.25;;;5.75;;
59169;SDS011;52474;52.236;5.114;2024-03-25T08:19:25;20.48;;;5.72;;
59169;SDS011;52474;52.236;5.114;2024-03-25T08:21:51;18.30;;;5.68;;
59169;SDS011;52474;52.236;5.114;2024-03-25T08:24:18;28.38;;;6.35;;
59169;SDS011;52474;52.236;5.114;2024-03-25T08:26:43;22.42;;;5.38;;
59169;SDS011;52474;52.236;5.114;2024-03-25T08:29:09;23.80;;;6.10;;
59169;SDS011;52474;52.236;5.114;2024-03-25T08:31:34;22.88;;;5.40;;
59169;SDS011;52474;52.236;5.114;2024-03-25T08:34:00;24.65;;;5.82;;
59169;SDS011;52474;52.236;5.114;2024-03-25T08:36:26;62.90;;;7.45;;
59169;SDS011;52474;52.236;5.114;2024-03-25T08:38:51;272.98;;;20.30;;
59169;SDS011;52474;52.236;5.114;2024-03-25T08:41:17;874.08;;;52.08;;
59169;SDS011;52474;52.236;5.114;2024-03-25T08:43:42;1835.75;;;167.13;;
59169;SDS011;52474;52.236;5.114;2024-03-25T08:46:08;1955.47;;;158.63;;
59169;SDS011;52474;52.236;5.114;2024-03-25T08:48:33;1554.13;;;119.15;;
59169;SDS011;52474;52.236;5.114;2024-03-25T08:50:59;1999.90;;;195.98;;
59169;SDS011;52474;52.236;5.114;2024-03-25T08:53:25;1645.63;;;147.93;;
59169;SDS011;52474;52.236;5.114;2024-03-25T08:55:50;1434.07;;;138.57;;
59169;SDS011;52474;52.236;5.114;2024-03-25T08:58:16;362.50;;;24.10;;
59169;SDS011;52474;52.236;5.114;2024-03-25T09:00:42;864.75;;;57.97;;
59169;SDS011;52474;52.236;5.114;2024-03-25T09:03:08;1132.40;;;63.35;;
59169;SDS011;52474;52.236;5.114;2024-03-25T09:05:36;1650.20;;;171.10;;
59169;SDS011;52474;52.236;5.114;2024-03-25T09:08:04;1128.82;;;87.65;;
59169;SDS011;52474;52.236;5.114;2024-03-25T09:10:36;1438.93;;;95.70;;
59169;SDS011;52474;52.236;5.114;2024-03-25T09:13:21;1051.82;;;66.03;;
59169;SDS011;52474;52.236;5.114;2024-03-25T09:15:49;1130.55;;;108.43;;
59169;SDS011;52474;52.236;5.114;2024-03-25T09:18:14;1218.95;;;93.28;;
59169;SDS011;52474;52.236;5.114;2024-03-25T09:20:40;260.92;;;18.58;;
59169;SDS011;52474;52.236;5.114;2024-03-25T09:23:06;393.30;;;25.45;;
59169;SDS011;52474;52.236;5.114;2024-03-25T09:25:33;396.08;;;27.38;;
59169;SDS011;52474;52.236;5.114;2024-03-25T09:27:58;740.58;;;56.05;;
59169;SDS011;52474;52.236;5.114;2024-03-25T09:30:24;101.10;;;10.00;;
59169;SDS011;52474;52.236;5.114;2024-03-25T09:32:49;126.38;;;11.85;;
59169;SDS011;52474;52.236;5.114;2024-03-25T09:35:15;45.53;;;6.38;;
59169;SDS011;52474;52.236;5.114;2024-03-25T09:37:41;19.08;;;4.35;;
59169;SDS011;52474;52.236;5.114;2024-03-25T09:40:06;17.45;;;3.90;;
59169;SDS011;52474;52.236;5.114;2024-03-25T09:45:21;23.25;;;4.63;;
59169;SDS011;52474;52.236;5.114;2024-03-25T09:47:53;17.10;;;3.60;;
59169;SDS011;52474;52.236;5.114;2024-03-25T09:50:20;19.30;;;3.75;;
59169;SDS011;52474;52.236;5.114;2024-03-25T09:52:47;17.67;;;3.95;;
59169;SDS011;52474;52.236;5.114;2024-03-25T09:55:13;17.98;;;4.05;;
59169;SDS011;52474;52.236;5.114;2024-03-25T09:57:39;17.25;;;4.07;;
59169;SDS011;52474;52.236;5.114;2024-03-25T10:00:07;11.20;;;3.40;;
59169;SDS011;52474;52.236;5.114;2024-03-25T10:02:41;22.23;;;4.50;;
59169;SDS011;52474;52.236;5.114;2024-03-25T10:05:08;17.52;;;3.85;;
59169;SDS011;52474;52.236;5.114;2024-03-25T10:07:34;13.70;;;3.63;;
59169;SDS011;52474;52.236;5.114;2024-03-25T10:10:06;20.42;;;3.97;;
59169;SDS011;52474;52.236;5.114;2024-03-25T10:12:35;13.60;;;3.72;;
59169;SDS011;52474;52.236;5.114;2024-03-25T10:15:01;18.13;;;4.03;;
59169;SDS011;52474;52.236;5.114;2024-03-25T10:17:27;19.80;;;4.10;;
59169;SDS011;52474;52.236;5.114;2024-03-25T10:19:55;13.68;;;3.97;;
59169;SDS011;52474;52.236;5.114;2024-03-25T10:22:21;16.83;;;4.43;;
59169;SDS011;52474;52.236;5.114;2024-03-25T10:24:47;12.55;;;3.28;;
59169;SDS011;52474;52.236;5.114;2024-03-25T10:27:20;16.45;;;4.15;;
59169;SDS011;52474;52.236;5.114;2024-03-25T10:29:47;13.52;;;4.03;;
59169;SDS011;52474;52.236;5.114;2024-03-25T10:32:14;15.32;;;3.78;;
59169;SDS011;52474;52.236;5.114;2024-03-25T10:34:43;12.38;;;4.00;;
59169;SDS011;52474;52.236;5.114;2024-03-25T10:37:09;15.10;;;3.95;;
59169;SDS011;52474;52.236;5.114;2024-03-25T10:39:52;10.43;;;3.40;;
59169;SDS011;52474;52.236;5.114;2024-03-25T10:42:25;13.55;;;3.70;;
59169;SDS011;52474;52.236;5.114;2024-03-25T10:44:51;16.02;;;3.97;;
59169;SDS011;52474;52.236;5.114;2024-03-25T10:47:21;13.52;;;4.20;;
59169;SDS011;52474;52.236;5.114;2024-03-25T10:49:59;15.77;;;5.30;;
59169;SDS011;52474;52.236;5.114;2024-03-25T10:52:35;15.23;;;4.35;;
59169;SDS011;52474;52.236;5.114;2024-03-25T10:55:03;15.27;;;4.70;;
59169;SDS011;52474;52.236;5.114;2024-03-25T10:57:32;14.20;;;4.15;;
59169;SDS011;52474;52.236;5.114;2024-03-25T11:00:01;16.38;;;4.88;;
59169;SDS011;52474;52.236;5.114;2024-03-25T11:02:29;13.80;;;4.22;;
59169;SDS011;52474;52.236;5.114;2024-03-25T11:04:56;14.93;;;4.88;;
59169;SDS011;52474;52.236;5.114;2024-03-25T11:07:30;14.80;;;4.45;;
59169;SDS011;52474;52.236;5.114;2024-03-25T11:10:02;11.82;;;4.57;;
59169;SDS011;52474;52.236;5.114;2024-03-25T11:12:37;16.83;;;4.93;;
59169;SDS011;52474;52.236;5.114;2024-03-25T11:15:06;11.35;;;4.50;;
59169;SDS011;52474;52.236;5.114;2024-03-25T11:17:36;11.30;;;5.05;;
59169;SDS011;52474;52.236;5.114;2024-03-25T11:20:12;14.70;;;5.35;;
59169;SDS011;52474;52.236;5.114;2024-03-25T11:22:50;13.93;;;4.68;;
59169;SDS011;52474;52.236;5.114;2024-03-25T11:25:17;11.15;;;4.90;;
59169;SDS011;52474;52.236;5.114;2024-03-25T11:27:45;14.15;;;5.15;;
59169;SDS011;52474;52.236;5.114;2024-03-25T11:30:12;12.10;;;5.22;;
59169;SDS011;52474;52.236;5.114;2024-03-25T11:32:45;10.10;;;4.45;;
59169;SDS011;52474;52.236;5.114;2024-03-25T11:35:12;11.43;;;4.40;;
59169;SDS011;52474;52.236;5.114;2024-03-25T11:37:40;11.00;;;4.25;;
59169;SDS011;52474;52.236;5.114;2024-03-25T11:40:07;10.38;;;4.50;;
59169;SDS011;52474;52.236;5.114;2024-03-25T11:42:42;10.10;;;4.82;;
59169;SDS011;52474;52.236;5.114;2024-03-25T11:45:18;9.43;;;4.53;;
59169;SDS011;52474;52.236;5.114;2024-03-25T11:47:45;12.55;;;5.20;;
59169;SDS011;52474;52.236;5.114;2024-03-25T11:50:19;13.40;;;5.43;;
59169;SDS011;52474;52.236;5.114;2024-03-25T11:52:45;15.50;;;5.70;;
59169;SDS011;52474;52.236;5.114;2024-03-25T11:55:15;10.82;;;5.40;;
59169;SDS011;52474;52.236;5.114;2024-03-25T11:57:42;9.90;;;5.47;;
59169;SDS011;52474;52.236;5.114;2024-03-25T12:00:12;9.77;;;4.82;;
59169;SDS011;52474;52.236;5.114;2024-03-25T12:02:44;10.32;;;5.07;;
59169;SDS011;52474;52.236;5.114;2024-03-25T12:05:12;10.85;;;5.10;;
59169;SDS011;52474;52.236;5.114;2024-03-25T12:07:38;9.15;;;5.32;;
59169;SDS011;52474;52.236;5.114;2024-03-25T12:10:04;10.30;;;5.63;;
59169;SDS011;52474;52.236;5.114;2024-03-25T12:12:49;11.25;;;6.50;;
59169;SDS011;52474;52.236;5.114;2024-03-25T12:15:20;11.85;;;7.18;;
59169;SDS011;52474;52.236;5.114;2024-03-25T12:17:46;9.75;;;5.72;;
59169;SDS011;52474;52.236;5.114;2024-03-25T12:20:12;13.23;;;5.88;;
59169;SDS011;52474;52.236;5.114;2024-03-25T12:22:41;12.05;;;6.47;;
59169;SDS011;52474;52.236;5.114;2024-03-25T12:25:07;10.75;;;5.82;;
59169;SDS011;52474;52.236;5.114;2024-03-25T12:27:34;10.18;;;6.43;;
59169;SDS011;52474;52.236;5.114;2024-03-25T12:30:08;10.73;;;6.25;;
59169;SDS011;52474;52.236;5.114;2024-03-25T12:32:41;8.30;;;6.10;;
59169;SDS011;52474;52.236;5.114;2024-03-25T12:35:09;9.90;;;5.90;;
59169;SDS011;52474;52.236;5.114;2024-03-25T12:37:37;11.25;;;5.90;;
59169;SDS011;52474;52.236;5.114;2024-03-25T12:40:07;10.18;;;5.78;;
59169;SDS011;52474;52.236;5.114;2024-03-25T12:42:36;8.40;;;5.32;;
59169;SDS011;52474;52.236;5.114;2024-03-25T12:45:03;8.52;;;5.38;;
59169;SDS011;52474;52.236;5.114;2024-03-25T12:47:30;6.15;;;4.85;;
59169;SDS011;52474;52.236;5.114;2024-03-25T12:49:56;8.25;;;4.82;;
59169;SDS011;52474;52.236;5.114;2024-03-25T12:52:22;9.05;;;4.30;;
59169;SDS011;52474;52.236;5.114;2024-03-25T12:54:48;9.45;;;4.40;;
59169;SDS011;52474;52.236;5.114;2024-03-25T12:57:14;7.80;;;3.97;;
59169;SDS011;52474;52.236;5.114;2024-03-25T12:59:40;8.25;;;4.20;;
59169;SDS011;52474;52.236;5.114;2024-03-25T13:02:10;7.90;;;4.32;;
59169;SDS011;52474;52.236;5.114;2024-03-25T13:04:37;9.10;;;4.43;;
59169;SDS011;52474;52.236;5.114;2024-03-25T13:07:03;6.35;;;4.30;;
59169;SDS011;52474;52.236;5.114;2024-03-25T13:09:29;6.80;;;3.78;;
59169;SDS011;52474;52.236;5.114;2024-03-25T13:11:56;8.57;;;4.13;;
59169;SDS011;52474;52.236;5.114;2024-03-25T13:14:22;9.60;;;4.00;;
59169;SDS011;52474;52.236;5.114;2024-03-25T13:16:48;9.65;;;4.22;;
59169;SDS011;52474;52.236;5.114;2024-03-25T13:19:14;7.03;;;3.90;;
59169;SDS011;52474;52.236;5.114;2024-03-25T13:21:39;8.15;;;3.95;;
59169;SDS011;52474;52.236;5.114;2024-03-25T13:24:06;6.70;;;3.80;;
59169;SDS011;52474;52.236;5.114;2024-03-25T13:26:32;6.28;;;4.07;;
59169;SDS011;52474;52.236;5.114;2024-03-25T13:28:58;9.30;;;3.92;;
59169;SDS011;52474;52.236;5.114;2024-03-25T13:31:24;8.07;;;3.85;;
59169;SDS011;52474;52.236;5.114;2024-03-25T13:33:49;9.32;;;3.60;;
59169;SDS011;52474;52.236;5.114;2024-03-25T13:36:16;5.47;;;3.47;;
59169;SDS011;52474;52.236;5.114;2024-03-25T13:38:42;7.07;;;3.80;;
59169;SDS011;52474;52.236;5.114;2024-03-25T13:41:08;6.03;;;3.40;;
59169;SDS011;52474;52.236;5.114;2024-03-25T13:43:53;6.38;;;3.30;;
59169;SDS011;52474;52.236;5.114;2024-03-25T13:46:19;7.50;;;3.13;;
59169;SDS011;52474;52.236;5.114;2024-03-25T13:48:44;8.93;;;3.70;;
59169;SDS011;52474;52.236;5.114;2024-03-25T13:51:12;9.43;;;3.55;;
59169;SDS011;52474;52.236;5.114;2024-03-25T13:53:38;7.15;;;3.63;;
59169;SDS011;52474;52.236;5.114;2024-03-25T13:56:05;8.20;;;3.47;;
59169;SDS011;52474;52.236;5.114;2024-03-25T13:58:31;7.00;;;3.72;;
59169;SDS011;52474;52.236;5.114;2024-03-25T14:00:57;9.32;;;3.40;;
59169;SDS011;52474;52.236;5.114;2024-03-25T14:03:22;9.77;;;3.33;;
59169;SDS011;52474;52.236;5.114;2024-03-25T14:05:48;10.07;;;3.75;;
59169;SDS011;52474;52.236;5.114;2024-03-25T14:08:14;7.40;;;3.65;;
59169;SDS011;52474;52.236;5.114;2024-03-25T14:10:42;7.97;;;3.20;;
59169;SDS011;52474;52.236;5.114;2024-03-25T14:13:08;8.93;;;3.67;;
59169;SDS011;52474;52.236;5.114;2024-03-25T14:15:34;5.28;;;3.10;;
59169;SDS011;52474;52.236;5.114;2024-03-25T14:17:59;8.73;;;3.58;;
59169;SDS011;52474;52.236;5.114;2024-03-25T14:20:25;8.63;;;3.45;;
59169;SDS011;52474;52.236;5.114;2024-03-25T14:22:50;10.48;;;3.70;;
59169;SDS011;52474;52.236;5.114;2024-03-25T14:25:16;5.68;;;3.25;;
59169;SDS011;52474;52.236;5.114;2024-03-25T14:27:42;5.35;;;3.28;;
59169;SDS011;52474;52.236;5.114;2024-03-25T14:30:08;7.72;;;3.20;;
59169;SDS011;52474;52.236;5.114;2024-03-25T14:32:36;8.80;;;3.83;;
59169;SDS011;52474;52.236;5.114;2024-03-25T14:35:04;6.85;;;3.50;;
59169;SDS011;52474;52.236;5.114;2024-03-25T14:37:31;9.25;;;3.72;;
59169;SDS011;52474;52.236;5.114;2024-03-25T14:39:58;6.68;;;3.50;;